Time;durP1;ratioP1;P1;durP2;ratioP2;P2;SDS_P1;SDS_P2;PMS_P1;PMS_P2;Temp;Humidity;BMP_temperature;BMP_pressure;BME280_temperature;BME280_humidity;BME280_pressure;Samples;Min_cycle;Max_cycle;Signal;HPM_P1;HPM_P2
2022/08/13 00:02:10;;;;;;;7.90;7.15;;;19.10;99.90;;;;;;4964510;28;20093;-57
2022/08/13 00:05:12;;;;;;;9.77;7.38;;;19.00;99.90;;;;;;4961821;28;20146;-57
2022/08/13 00:07:36;;;;;;;8.10;7.30;;;19.00;99.90;;;;;;4960022;28;20047;-57
2022/08/13 00:10:05;;;;;;;9.55;7.00;;;19.00;99.90;;;;;;4962794;28;20043;-57
2022/08/13 00:15:28;;;;;;;8.70;7.07;;;18.90;99.90;;;;;;4944268;28;20051;-57
2022/08/13 00:18:02;;;;;;;7.97;7.18;;;18.90;99.90;;;;;;4962508;28;20046;-57
2022/08/13 00:20:34;;;;;;;7.47;6.88;;;18.70;99.90;;;;;;4953818;28;20129;-57
2022/08/13 00:23:00;;;;;;;8.25;7.45;;;18.70;99.90;;;;;;4963164;28;20051;-57
2022/08/13 00:25:27;;;;;;;8.55;7.53;;;18.60;99.90;;;;;;4963376;28;20057;-56
2022/08/13 00:27:57;;;;;;;10.52;7.10;;;18.50;99.90;;;;;;4963236;28;20584;-57
2022/08/13 00:30:34;;;;;;;9.82;7.18;;;18.50;99.90;;;;;;4963606;28;20093;-57
2022/08/13 00:33:12;;;;;;;12.88;6.97;;;18.40;99.90;;;;;;4948965;28;20066;-57
2022/08/13 00:35:41;;;;;;;8.52;7.43;;;18.40;99.90;;;;;;4945834;28;20066;-56
2022/08/13 00:38:13;;;;;;;11.32;7.82;;;18.40;99.90;;;;;;4963199;28;20516;-58
2022/08/13 00:40:53;;;;;;;9.50;7.37;;;18.30;99.90;;;;;;4947179;28;20061;-57
2022/08/13 00:43:20;;;;;;;8.93;6.78;;;18.30;99.90;;;;;;4963000;28;20086;-58
2022/08/13 00:45:47;;;;;;;11.73;7.72;;;18.30;99.90;;;;;;4963900;28;20046;-56
2022/08/13 00:50:59;;;;;;;9.90;6.75;;;18.20;99.90;;;;;;4963781;28;20054;-57
2022/08/13 00:53:27;;;;;;;11.13;6.43;;;18.20;99.90;;;;;;4962643;28;20054;-57
2022/08/13 00:55:58;;;;;;;9.57;7.20;;;18.20;99.90;;;;;;4962320;28;20112;-57
2022/08/13 00:58:26;;;;;;;8.48;7.45;;;18.20;99.90;;;;;;4962336;28;20485;-55
2022/08/13 01:00:58;;;;;;;8.57;7.75;;;18.20;99.90;;;;;;4954405;28;20058;-56
2022/08/13 01:03:27;;;;;;;8.60;7.20;;;18.10;99.90;;;;;;4958421;28;20112;-57
2022/08/13 01:05:59;;;;;;;8.88;7.30;;;18.10;99.90;;;;;;4954144;28;20150;-56
2022/08/13 01:08:26;;;;;;;;;;;18.10;99.90;;;;;;4961840;28;20055;-55
2022/08/13 01:10:56;;;;;;;10.88;7.75;;;18.10;99.90;;;;;;4962620;28;19945;-58
2022/08/13 01:13:28;;;;;;;12.25;7.45;;;18.00;99.90;;;;;;4999653;28;20043;-56
2022/08/13 01:15:56;;;;;;;9.65;7.05;;;18.00;99.90;;;;;;4950210;28;20442;-55
2022/08/13 01:18:24;;;;;;;8.93;7.25;;;18.00;99.90;;;;;;4948226;28;20142;-56
2022/08/13 01:21:17;;;;;;;7.45;6.75;;;17.90;99.90;;;;;;4961722;28;20472;-57
2022/08/13 01:23:48;;;;;;;8.38;7.15;;;17.90;99.90;;;;;;4962079;28;20506;-55
2022/08/13 01:26:17;;;;;;;8.27;6.32;;;17.80;99.90;;;;;;4964951;28;20058;-57
2022/08/13 01:28:46;;;;;;;8.65;6.35;;;17.90;99.90;;;;;;4981954;28;20054;-55
2022/08/13 01:31:14;;;;;;;7.82;7.05;;;17.80;99.90;;;;;;4962445;28;20051;-56
2022/08/13 01:33:43;;;;;;;9.68;7.32;;;17.80;99.90;;;;;;4961848;28;20047;-56
2022/08/13 01:36:11;;;;;;;7.90;6.45;;;17.80;99.90;;;;;;4959924;28;20532;-57
2022/08/13 01:38:40;;;;;;;9.27;6.72;;;17.90;99.90;;;;;;4962082;28;20051;-57
2022/08/13 01:41:11;;;;;;;7.45;6.70;;;17.90;99.90;;;;;;4954927;28;20055;-57
2022/08/13 01:43:39;;;;;;;9.57;7.30;;;17.90;99.90;;;;;;4956019;28;20065;-56
2022/08/13 01:46:08;;;;;;;10.25;7.05;;;17.90;99.90;;;;;;4961828;28;20059;-56
2022/08/13 01:51:33;;;;;;;9.68;7.20;;;17.80;99.90;;;;;;4962858;28;20058;-56
2022/08/13 01:54:00;;;;;;;8.90;7.05;;;17.80;99.90;;;;;;4961459;28;20058;-57
2022/08/13 01:56:29;;;;;;;7.45;6.68;;;17.80;99.90;;;;;;4961507;28;20509;-57
2022/08/13 01:58:58;;;;;;;8.13;6.97;;;17.80;99.90;;;;;;4960320;28;20057;-57
2022/08/13 02:01:26;;;;;;;8.43;6.53;;;17.80;99.90;;;;;;4962981;28;20050;-57
2022/08/13 02:03:56;;;;;;;7.93;7.03;;;17.80;99.90;;;;;;4961638;28;20054;-56
2022/08/13 02:06:23;;;;;;;9.23;6.82;;;17.80;99.90;;;;;;4962587;28;20125;-56
2022/08/13 02:08:52;;;;;;;8.18;6.93;;;17.80;99.90;;;;;;4962532;28;20057;-56
2022/08/13 02:11:19;;;;;;;6.95;6.18;;;17.70;99.90;;;;;;4963823;28;20571;-57
2022/08/13 02:13:48;;;;;;;7.80;7.10;;;17.70;99.90;;;;;;4988824;28;20053;-56
2022/08/13 02:16:14;;;;;;;10.02;7.55;;;17.70;99.90;;;;;;4945138;28;20043;-55
2022/08/13 02:18:40;;;;;;;10.38;6.85;;;17.70;99.90;;;;;;4961427;28;20058;-55
2022/08/13 02:21:06;;;;;;;8.98;7.20;;;17.70;99.90;;;;;;4947586;28;20066;-56
2022/08/13 02:23:35;;;;;;;9.70;6.93;;;17.70;99.90;;;;;;4949884;28;20051;-57
2022/08/13 02:26:05;;;;;;;11.05;6.70;;;17.70;99.90;;;;;;4961614;28;20059;-56
2022/08/13 02:28:37;;;;;;;11.68;7.43;;;17.70;99.90;;;;;;4960119;28;20055;-57
2022/08/13 02:31:04;;;;;;;10.73;7.07;;;17.70;99.90;;;;;;4959957;28;20051;-56
2022/08/13 02:33:37;;;;;;;10.48;7.15;;;17.70;99.90;;;;;;4958918;28;20062;-55
2022/08/13 02:36:10;;;;;;;8.23;7.40;;;17.70;99.90;;;;;;4954933;28;20063;-56
2022/08/13 02:38:37;;;;;;;12.57;8.27;;;17.70;99.90;;;;;;4954686;28;20047;-53
2022/08/13 02:43:56;;;;;;;9.23;6.93;;;17.70;99.90;;;;;;5012100;28;20078;-53
2022/08/13 02:46:24;;;;;;;9.85;7.15;;;17.70;99.90;;;;;;4965686;28;20417;-56
2022/08/13 02:48:52;;;;;;;10.75;7.72;;;17.70;99.90;;;;;;4971811;28;20035;-56
2022/08/13 02:51:23;;;;;;;8.60;7.00;;;17.70;99.90;;;;;;4972740;28;20054;-55
2022/08/13 02:53:53;;;;;;;10.80;7.07;;;17.70;99.90;;;;;;4959442;28;20050;-56
2022/08/13 02:56:19;;;;;;;10.05;7.32;;;17.70;99.90;;;;;;4962173;28;20803;-56
2022/08/13 02:58:45;;;;;;;9.73;7.00;;;17.70;99.90;;;;;;4964221;28;20047;-56
2022/08/13 03:01:14;;;;;;;11.57;8.10;;;17.70;99.90;;;;;;4963407;28;20056;-56
2022/08/13 03:03:40;;;;;;;14.90;7.68;;;17.70;99.90;;;;;;4966792;28;20050;-56
2022/08/13 03:06:10;;;;;;;8.20;7.38;;;17.70;99.90;;;;;;4978801;28;20046;-55
2022/08/13 03:08:37;;;;;;;8.48;6.95;;;17.70;99.90;;;;;;4963408;28;20490;-56
2022/08/13 03:11:03;;;;;;;8.00;6.95;;;17.70;99.90;;;;;;4965032;28;20082;-54
2022/08/13 03:13:35;;;;;;;9.80;6.50;;;17.70;99.90;;;;;;5001782;28;20063;-54
2022/08/13 03:16:05;;;;;;;9.07;6.97;;;17.70;99.90;;;;;;4963329;28;20091;-56
2022/08/13 03:18:31;;;;;;;8.52;6.55;;;17.70;99.90;;;;;;4965157;28;20124;-56
2022/08/13 03:20:58;;;;;;;8.05;6.90;;;17.70;99.90;;;;;;4977816;28;20082;-57
2022/08/13 03:23:30;;;;;;;9.43;6.80;;;17.70;99.90;;;;;;4974343;28;20055;-62
2022/08/13 03:25:56;;;;;;;13.02;7.18;;;17.70;99.90;;;;;;4964680;28;20055;-55
2022/08/13 03:28:23;;;;;;;9.63;6.35;;;17.70;99.90;;;;;;4971774;28;20172;-56
2022/08/13 03:30:49;;;;;;;9.00;6.20;;;17.70;99.90;;;;;;4968356;28;20073;-55
2022/08/13 03:33:20;;;;;;;8.80;6.38;;;17.60;99.90;;;;;;4962977;28;20057;-53
2022/08/13 03:35:46;;;;;;;10.88;6.63;;;17.70;99.90;;;;;;4967883;28;20055;-52
2022/08/13 03:38:15;;;;;;;7.93;7.18;;;17.60;99.90;;;;;;4973815;28;20422;-56
2022/08/13 03:43:30;;;;;;;10.95;6.45;;;17.60;99.90;;;;;;4974743;28;20068;-54
2022/08/13 03:46:00;;;;;;;9.00;7.10;;;17.60;99.90;;;;;;4962818;28;20082;-57
2022/08/13 03:48:27;;;;;;;7.22;6.53;;;17.60;99.90;;;;;;4951343;28;20059;-53
2022/08/13 03:50:55;;;;;;;8.65;6.75;;;17.60;99.90;;;;;;4962617;28;20046;-53
2022/08/13 03:53:21;;;;;;;11.32;6.57;;;17.60;99.90;;;;;;4960217;28;20043;-56
2022/08/13 03:55:48;;;;;;;10.05;6.80;;;17.60;99.90;;;;;;4964157;28;20054;-56
2022/08/13 03:58:15;;;;;;;10.73;6.55;;;17.50;99.90;;;;;;4963799;28;20042;-55
2022/08/13 04:00:47;;;;;;;8.38;6.93;;;17.50;99.90;;;;;;4974062;28;20073;-57
2022/08/13 04:03:28;;;;;;;9.65;6.75;;;17.50;99.90;;;;;;4974406;28;20624;-52
2022/08/13 04:06:01;;;;;;;8.20;6.50;;;17.50;99.90;;;;;;4962820;28;20133;-56
2022/08/13 04:08:31;;;;;;;7.78;7.00;;;17.50;99.90;;;;;;4953346;28;20416;-55
2022/08/13 04:10:57;;;;;;;7.25;6.55;;;17.50;99.90;;;;;;4954812;28;20454;-53
2022/08/13 04:13:25;;;;;;;12.65;6.82;;;17.40;99.90;;;;;;4995919;28;20142;-56
2022/08/13 04:15:52;;;;;;;8.63;6.78;;;17.40;99.90;;;;;;4956571;28;20199;-53
2022/08/13 04:18:18;;;;;;;9.65;6.90;;;17.40;99.90;;;;;;4963056;28;20043;-55
2022/08/13 04:20:50;;;;;;;8.00;7.28;;;17.40;99.90;;;;;;4963479;28;20047;-55
2022/08/13 04:23:17;;;;;;;10.80;6.63;;;17.40;99.90;;;;;;4978288;28;20046;-56
2022/08/13 04:25:44;;;;;;;12.30;7.18;;;17.40;99.90;;;;;;4968318;28;20290;-53
2022/08/13 04:28:12;;;;;;;8.10;6.82;;;17.40;99.90;;;;;;4963427;28;20062;-53
2022/08/13 04:30:41;;;;;;;7.70;6.70;;;17.40;99.90;;;;;;4962400;28;20046;-54
2022/08/13 04:33:09;;;;;;;8.13;6.35;;;17.40;99.90;;;;;;4962594;28;20596;-56
2022/08/13 04:35:37;;;;;;;9.40;7.18;;;17.40;99.90;;;;;;4961927;28;20099;-54
2022/08/13 04:38:05;;;;;;;10.02;7.03;;;17.40;99.90;;;;;;4966297;28;20043;-54
2022/08/13 04:40:37;;;;;;;10.07;6.72;;;17.40;99.90;;;;;;4961420;28;20150;-54
2022/08/13 04:43:04;;;;;;;6.68;5.95;;;17.40;99.90;;;;;;4962246;28;20370;-54
2022/08/13 04:45:31;;;;;;;12.68;6.82;;;17.50;99.90;;;;;;4962739;28;20819;-54
2022/08/13 04:48:09;;;;;;;8.55;6.50;;;17.60;99.90;;;;;;4963569;28;20127;-54
2022/08/13 04:50:37;;;;;;;7.32;6.50;;;17.60;99.90;;;;;;4967592;28;20054;-54
2022/08/13 04:53:09;;;;;;;11.23;6.85;;;17.60;99.90;;;;;;4978388;28;20451;-55
2022/08/13 04:55:37;;;;;;;13.38;6.65;;;17.70;99.90;;;;;;4961953;28;20515;-54
2022/08/13 04:58:04;;;;;;;7.35;6.35;;;17.80;99.90;;;;;;4967454;28;20120;-56
2022/08/13 05:00:34;;;;;;;6.65;6.05;;;17.80;99.90;;;;;;4963899;28;20092;-55
2022/08/13 05:03:18;;;;;;;7.85;6.60;;;17.90;99.90;;;;;;4961896;28;20043;-53
2022/08/13 05:05:46;;;;;;;11.77;5.80;;;18.10;99.90;;;;;;4952569;28;20051;-53
2022/08/13 05:08:17;;;;;;;12.07;6.35;;;18.70;99.90;;;;;;4960496;28;20058;-54
2022/08/13 05:10:45;;;;;;;8.93;5.88;;;20.00;99.90;;;;;;4955263;28;20101;-52
2022/08/13 05:13:32;;;;;;;10.00;5.72;;;21.40;99.90;;;;;;5001569;28;20058;-55
2022/08/13 05:16:04;;;;;;;7.38;5.70;;;22.90;98.50;;;;;;4944349;28;20066;-54
2022/08/13 05:18:33;;;;;;;9.45;6.40;;;24.10;97.60;;;;;;4956570;28;20097;-54
2022/08/13 05:21:03;;;;;;;5.90;5.30;;;25.10;95.60;;;;;;4962290;28;20050;-55
2022/08/13 05:23:31;;;;;;;7.95;5.65;;;26.00;94.70;;;;;;4961070;28;20054;-52
2022/08/13 05:26:00;;;;;;;6.32;5.22;;;26.60;93.60;;;;;;4973722;28;20402;-54
2022/08/13 05:28:27;;;;;;;7.90;5.68;;;27.20;92.70;;;;;;4962726;28;20141;-54
2022/08/13 05:30:53;;;;;;;10.25;5.35;;;27.90;91.70;;;;;;4962601;28;20409;-55
2022/08/13 05:33:22;;;;;;;7.22;4.90;;;28.70;91.00;;;;;;4971873;28;20080;-56
2022/08/13 05:36:01;;;;;;;7.10;5.53;;;29.00;89.80;;;;;;4964513;28;20916;-53
2022/08/13 05:38:29;;;;;;;7.90;4.85;;;29.50;87.50;;;;;;4962649;28;20054;-56
2022/08/13 05:41:01;;;;;;;5.68;4.60;;;30.20;87.00;;;;;;5027122;28;20639;-53
2022/08/13 05:43:29;;;;;;;5.15;4.65;;;30.80;84.50;;;;;;4956513;28;20058;-53
2022/08/13 05:45:57;;;;;;;8.25;4.68;;;31.00;84.40;;;;;;4949195;28;20117;-54
2022/08/13 05:48:28;;;;;;;10.43;5.25;;;31.20;82.60;;;;;;4962056;28;20049;-54
2022/08/13 05:50:59;;;;;;;9.90;4.60;;;31.60;81.40;;;;;;4962790;28;20047;-55
2022/08/13 05:53:26;;;;;;;5.53;4.72;;;32.00;81.20;;;;;;4961495;28;20051;-54
2022/08/13 05:55:54;;;;;;;7.78;4.47;;;32.40;79.80;;;;;;4962125;28;20051;-54
2022/08/13 05:58:23;;;;;;;5.80;4.32;;;32.80;79.50;;;;;;4966271;28;20129;-54
2022/08/13 06:03:37;;;;;;;5.30;3.90;;;33.80;76.80;;;;;;4971091;28;20047;-54
2022/08/13 06:06:06;;;;;;;6.88;4.38;;;33.80;76.00;;;;;;4944408;28;20192;-54
2022/08/13 06:08:38;;;;;;;6.55;4.90;;;33.60;75.50;;;;;;4956448;28;20065;-55
2022/08/13 06:11:11;;;;;;;7.65;4.30;;;34.10;75.00;;;;;;4959911;28;20130;-55
2022/08/13 06:13:45;;;;;;;7.22;3.80;;;34.50;73.80;;;;;;5001899;28;20054;-55
2022/08/13 06:16:13;;;;;;;5.47;4.32;;;34.90;73.20;;;;;;4961787;28;20413;-55
2022/08/13 06:18:43;;;;;;;7.40;4.53;;;35.20;74.20;;;;;;4962443;28;20062;-57
2022/08/13 06:21:12;;;;;;;7.40;3.90;;;35.80;72.90;;;;;;4963644;28;20054;-56
2022/08/13 06:23:39;;;;;;;6.05;4.00;;;35.90;72.20;;;;;;4958868;28;20562;-56
2022/08/13 06:26:08;;;;;;;8.52;4.25;;;35.80;71.10;;;;;;4957872;28;20058;-55
2022/08/13 06:28:36;;;;;;;4.30;3.70;;;36.00;71.10;;;;;;4961782;28;20128;-55
2022/08/13 06:31:07;;;;;;;5.13;3.63;;;35.90;71.10;;;;;;4959208;28;20074;-55
2022/08/13 06:33:36;;;;;;;4.35;3.60;;;36.00;69.90;;;;;;4959133;28;20710;-55
2022/08/13 06:36:15;;;;;;;6.22;3.70;;;36.20;71.30;;;;;;4960895;28;20046;-56
2022/08/13 06:38:48;;;;;;;7.53;3.45;;;36.40;69.30;;;;;;4958367;28;20129;-58
2022/08/13 06:41:16;;;;;;;5.15;3.60;;;36.60;69.60;;;;;;5018961;28;20066;-55
2022/08/13 06:43:49;;;;;;;4.18;3.53;;;36.70;69.60;;;;;;4959128;28;20104;-56
2022/08/13 06:46:35;;;;;;;7.10;3.40;;;36.90;68.80;;;;;;4960293;28;20492;-56
2022/08/13 06:49:02;;;;;;;4.72;3.60;;;37.00;66.90;;;;;;4961292;28;20051;-55
2022/08/13 06:51:29;;;;;;;5.32;3.00;;;36.30;68.40;;;;;;4959717;28;20176;-54
2022/08/13 06:53:55;;;;;;;5.78;3.30;;;36.30;68.30;;;;;;4960607;28;20653;-56
2022/08/13 06:56:24;;;;;;;4.30;3.35;;;36.30;66.90;;;;;;4958378;28;20070;-55
2022/08/13 06:58:52;;;;;;;6.25;2.88;;;36.40;67.70;;;;;;4961318;28;20339;-56
2022/08/13 07:01:24;;;;;;;5.88;2.97;;;36.60;67.40;;;;;;4961782;28;20138;-57
2022/08/13 07:03:50;;;;;;;3.28;2.83;;;36.60;66.90;;;;;;4949560;28;20064;-56
2022/08/13 07:06:18;;;;;;;7.93;3.42;;;36.60;67.70;;;;;;4947846;28;20133;-56
2022/08/13 07:08:45;;;;;;;5.25;2.70;;;35.90;67.90;;;;;;4942775;28;20066;-56
2022/08/13 07:11:28;;;;;;;6.68;2.60;;;35.30;69.30;;;;;;4949583;28;20558;-56
2022/08/13 07:13:59;;;;;;;8.45;2.55;;;34.50;69.30;;;;;;4953314;28;20058;-57
2022/08/13 07:16:34;;;;;;;6.63;2.78;;;33.70;70.40;;;;;;4991477;28;20047;-56
2022/08/13 07:19:02;;;;;;;4.47;2.90;;;33.10;70.70;;;;;;4963514;28;20133;-55
2022/08/13 07:21:28;;;;;;;3.85;2.45;;;32.90;70.60;;;;;;4957710;28;20054;-55
2022/08/13 07:23:55;;;;;;;5.88;3.10;;;32.50;71.10;;;;;;4960323;28;20139;-56
2022/08/13 07:26:24;;;;;;;3.42;2.10;;;32.50;71.10;;;;;;4959359;28;20058;-56
2022/08/13 07:28:51;;;;;;;4.47;2.65;;;32.10;72.00;;;;;;4959306;28;20043;-55
2022/08/13 07:31:28;;;;;;;4.63;2.28;;;31.90;71.60;;;;;;4958840;28;20145;-57
2022/08/13 07:33:55;;;;;;;5.47;2.60;;;31.70;73.30;;;;;;4959823;28;20066;-56
2022/08/13 07:36:27;;;;;;;4.10;2.47;;;31.50;72.30;;;;;;4958948;28;20493;-54
2022/08/13 07:38:54;;;;;;;3.97;2.45;;;31.20;72.00;;;;;;4959258;28;20552;-56
2022/08/13 07:41:21;;;;;;;4.63;2.25;;;31.10;72.70;;;;;;4954592;28;20166;-57
2022/08/13 07:43:47;;;;;;;5.22;2.58;;;30.90;74.10;;;;;;4952771;28;20434;-56
2022/08/13 07:46:17;;;;;;;4.80;2.30;;;30.70;73.60;;;;;;4964341;28;20046;-57
2022/08/13 07:48:52;;;;;;;3.78;2.50;;;30.60;74.70;;;;;;4966410;28;20196;-56
2022/08/13 07:51:20;;;;;;;5.35;2.05;;;30.70;73.70;;;;;;4963464;28;20066;-55
2022/08/13 07:53:56;;;;;;;3.30;1.98;;;30.60;73.00;;;;;;4961871;28;20086;-56
2022/08/13 07:56:28;;;;;;;3.33;2.20;;;30.60;73.80;;;;;;4963483;28;20465;-56
2022/08/13 07:59:01;;;;;;;5.05;2.45;;;30.50;73.90;;;;;;4964703;28;20043;-56
2022/08/13 08:01:29;;;;;;;6.38;2.80;;;30.40;73.10;;;;;;4961789;28;20047;-56
2022/08/13 08:04:04;;;;;;;3.92;1.90;;;30.50;73.30;;;;;;4962863;28;20122;-56
2022/08/13 08:06:32;;;;;;;4.20;2.70;;;30.40;76.00;;;;;;4963301;28;20067;-55
2022/08/13 08:08:58;;;;;;;2.67;2.00;;;30.50;74.20;;;;;;4962449;28;20710;-56
2022/08/13 08:14:12;;;;;;;2.65;2.15;;;30.40;73.50;;;;;;4962888;28;20070;-57
2022/08/13 08:16:44;;;;;;;4.05;2.20;;;30.10;73.90;;;;;;4962100;28;20046;-57
2022/08/13 08:19:12;;;;;;;;;;;30.10;73.10;;;;;;4961104;28;20047;-59
2022/08/13 08:21:40;;;;;;;3.45;1.88;;;30.00;73.50;;;;;;4955861;28;19960;-57
2022/08/13 08:24:07;;;;;;;6.07;2.63;;;30.00;76.50;;;;;;4978356;28;20061;-57
2022/08/13 08:26:34;;;;;;;4.35;2.10;;;30.00;76.10;;;;;;4963054;28;20042;-56
2022/08/13 08:29:12;;;;;;;6.45;2.30;;;30.20;75.50;;;;;;4963207;28;20421;-57
2022/08/13 08:31:42;;;;;;;5.03;2.05;;;30.20;73.50;;;;;;4961741;28;20691;-58
2022/08/13 08:34:11;;;;;;;5.50;2.15;;;30.20;73.30;;;;;;4942327;28;20051;-57
2022/08/13 08:36:42;;;;;;;5.20;2.30;;;30.30;75.50;;;;;;4943361;28;20046;-58
2022/08/13 08:44:57;;;;;;;4.55;2.10;;;30.30;73.50;;;;;;4902670;28;20091;-57
2022/08/13 08:47:31;;;;;;;6.50;2.10;;;30.50;73.30;;;;;;4902909;29;20114;-57
2022/08/13 08:49:58;;;;;;;5.72;1.98;;;30.50;72.30;;;;;;4886417;29;20056;-58
2022/08/13 08:55:24;;;;;;;5.72;1.95;;;30.20;71.00;;;;;;4900762;28;20060;-57
2022/08/13 08:57:52;;;;;;;7.20;2.13;;;30.20;71.10;;;;;;4912792;29;20538;-57
2022/08/13 09:00:23;;;;;;;4.05;1.90;;;30.20;72.20;;;;;;4903572;29;20649;-58
2022/08/13 09:02:49;;;;;;;5.55;1.90;;;30.30;72.00;;;;;;4885240;29;20064;-58
2022/08/13 09:05:20;;;;;;;6.03;2.10;;;30.20;71.30;;;;;;4902782;28;20107;-57
2022/08/13 09:07:50;;;;;;;5.00;1.92;;;30.30;72.10;;;;;;4903692;29;20058;-58
2022/08/13 09:10:18;;;;;;;3.08;1.60;;;30.40;70.80;;;;;;4902073;29;20048;-58
2022/08/13 09:12:46;;;;;;;4.45;1.98;;;30.30;70.40;;;;;;4937636;28;20060;-58
2022/08/13 09:15:14;;;;;;;5.05;2.08;;;30.30;70.00;;;;;;4875000;29;20076;-57
2022/08/13 09:17:40;;;;;;;4.53;2.00;;;30.40;71.00;;;;;;4902842;28;20052;-58
2022/08/13 09:20:12;;;;;;;8.38;2.28;;;30.50;71.60;;;;;;4960220;28;20070;-58
2022/08/13 09:22:40;;;;;;;2.15;1.70;;;30.60;72.40;;;;;;4961037;28;20051;-60
2022/08/13 09:25:18;;;;;;;6.90;1.60;;;30.70;71.50;;;;;;4962062;28;20421;-58
2022/08/13 09:27:44;;;;;;;7.40;1.90;;;30.80;68.10;;;;;;4961692;28;20089;-58
2022/08/13 09:30:11;;;;;;;7.45;1.92;;;30.70;69.60;;;;;;4960205;28;20158;-57
2022/08/13 09:32:37;;;;;;;3.67;1.60;;;30.70;69.30;;;;;;4960317;28;20497;-59
2022/08/13 09:35:06;;;;;;;3.67;1.73;;;30.70;70.40;;;;;;4960211;28;20049;-58
2022/08/13 09:37:36;;;;;;;3.28;1.77;;;30.50;69.30;;;;;;4961669;28;20054;-57
2022/08/13 09:40:07;;;;;;;3.05;1.63;;;30.50;68.70;;;;;;4960436;28;20059;-58
2022/08/13 09:42:44;;;;;;;3.85;1.70;;;30.40;69.00;;;;;;4960239;28;20583;-58
2022/08/13 09:45:12;;;;;;;2.80;1.70;;;30.50;69.30;;;;;;4995123;28;20118;-58
2022/08/13 09:47:39;;;;;;;4.50;1.92;;;30.70;70.30;;;;;;4959649;28;20050;-58
2022/08/13 09:50:06;;;;;;;3.65;1.90;;;30.90;68.70;;;;;;4962116;28;20074;-58
2022/08/13 09:52:32;;;;;;;8.02;1.80;;;30.70;68.00;;;;;;4960551;28;20159;-58
2022/08/13 09:54:58;;;;;;;2.83;1.70;;;30.70;70.10;;;;;;4960920;28;20134;-58
2022/08/13 09:57:24;;;;;;;5.03;1.90;;;30.70;70.20;;;;;;4961904;28;20082;-58
2022/08/13 09:59:51;;;;;;;6.38;1.80;;;30.80;69.80;;;;;;4960522;28;20062;-59
2022/08/13 10:02:21;;;;;;;4.23;1.90;;;31.00;70.40;;;;;;4958317;28;20076;-58
2022/08/13 10:04:52;;;;;;;4.70;1.92;;;31.10;69.90;;;;;;4959874;28;20053;-57
2022/08/13 10:07:18;;;;;;;5.53;2.20;;;31.20;68.90;;;;;;4960644;28;20108;-58
2022/08/13 10:09:53;;;;;;;3.88;2.15;;;31.10;68.00;;;;;;4958718;28;20468;-58
2022/08/13 10:12:18;;;;;;;5.22;1.85;;;31.00;70.10;;;;;;4953731;28;20054;-58
2022/08/13 10:14:44;;;;;;;3.35;1.80;;;30.90;69.10;;;;;;4958655;28;20506;-59
2022/08/13 10:17:10;;;;;;;3.08;1.63;;;30.90;68.40;;;;;;4966702;28;20135;-58
2022/08/13 10:19:36;;;;;;;4.97;2.03;;;30.90;68.40;;;;;;4963204;28;20038;-58
2022/08/13 10:22:02;;;;;;;3.05;2.00;;;30.90;68.90;;;;;;4974543;28;20730;-58
2022/08/13 10:24:29;;;;;;;3.15;1.90;;;30.90;68.30;;;;;;4960854;28;20077;-58
2022/08/13 10:26:55;;;;;;;1.58;1.48;;;30.90;69.00;;;;;;4942387;28;20050;-58
2022/08/13 10:29:21;;;;;;;3.17;2.00;;;31.00;68.60;;;;;;4967588;28;20444;-60
2022/08/13 10:31:46;;;;;;;4.88;1.92;;;31.00;68.50;;;;;;4958443;28;20055;-59
2022/08/13 10:34:12;;;;;;;5.57;2.05;;;30.90;67.60;;;;;;4958698;28;20078;-58
2022/08/13 10:36:39;;;;;;;3.72;2.55;;;30.90;68.00;;;;;;4972090;28;20403;-59
2022/08/13 10:39:06;;;;;;;5.63;2.63;;;30.90;68.20;;;;;;4963133;28;20061;-58
2022/08/13 10:41:35;;;;;;;2.30;1.92;;;30.90;68.20;;;;;;4958999;28;20143;-58
2022/08/13 10:44:02;;;;;;;3.35;1.80;;;30.90;70.30;;;;;;4967726;28;20050;-59
2022/08/13 10:46:31;;;;;;;4.95;2.03;;;31.00;69.80;;;;;;4969736;28;20057;-58
2022/08/13 10:48:58;;;;;;;4.40;1.98;;;31.10;69.10;;;;;;4960608;28;20126;-59
2022/08/13 10:51:26;;;;;;;2.42;1.80;;;31.10;68.50;;;;;;4959970;28;20455;-58
2022/08/13 10:54:00;;;;;;;6.07;2.05;;;31.10;69.50;;;;;;4978329;28;20415;-59
2022/08/13 10:56:30;;;;;;;3.85;1.88;;;31.20;68.70;;;;;;4963673;28;20055;-58
2022/08/13 10:59:04;;;;;;;3.30;2.17;;;31.10;68.10;;;;;;4960919;28;20058;-58
2022/08/13 11:01:30;;;;;;;4.50;1.90;;;31.00;68.50;;;;;;4968183;28;20054;-60
2022/08/13 11:04:01;;;;;;;2.55;1.60;;;31.00;68.00;;;;;;4959485;28;20055;-58
2022/08/13 11:06:27;;;;;;;2.63;2.10;;;31.10;69.20;;;;;;4959330;28;20134;-58
2022/08/13 11:08:54;;;;;;;3.72;1.75;;;31.20;68.40;;;;;;4958168;28;20061;-58
2022/08/13 11:11:34;;;;;;;5.25;1.58;;;31.20;68.30;;;;;;4955001;28;20505;-59
2022/08/13 11:14:00;;;;;;;3.03;1.70;;;31.20;67.70;;;;;;4973984;28;20564;-58
2022/08/13 11:19:07;;;;;;;3.58;1.65;;;31.40;67.20;;;;;;4963538;28;20050;-59
2022/08/13 11:21:33;;;;;;;4.00;1.50;;;31.40;67.20;;;;;;4943942;28;20065;-59
2022/08/13 11:23:59;;;;;;;2.30;1.55;;;31.50;66.60;;;;;;4960987;28;20050;-60
2022/08/13 11:26:25;;;;;;;4.22;1.80;;;31.50;67.00;;;;;;4957119;28;20128;-60
2022/08/13 11:28:51;;;;;;;1.80;1.70;;;31.50;65.90;;;;;;4961599;28;20596;-59
2022/08/13 11:31:17;;;;;;;5.43;2.03;;;31.40;66.30;;;;;;4961461;28;20062;-58
2022/08/13 11:33:43;;;;;;;5.05;1.52;;;31.30;65.80;;;;;;4977283;28;20145;-59
2022/08/13 11:36:09;;;;;;;3.63;1.75;;;31.30;65.60;;;;;;4982942;28;20412;-59
2022/08/13 11:38:35;;;;;;;4.25;1.73;;;31.30;66.10;;;;;;4981628;28;20054;-59
2022/08/13 11:41:02;;;;;;;4.35;1.80;;;31.30;65.80;;;;;;4975473;28;21035;-58
2022/08/13 11:43:30;;;;;;;2.50;1.75;;;31.30;66.10;;;;;;4963596;28;20047;-58
2022/08/13 11:46:38;;;;;;;7.38;2.10;;;31.40;66.00;;;;;;4964875;28;20047;-58
2022/08/13 11:49:06;;;;;;;4.40;1.80;;;31.40;67.30;;;;;;4921334;28;20063;-59
2022/08/13 11:51:32;;;;;;;5.70;1.80;;;31.20;65.20;;;;;;4922235;28;20170;-59
2022/08/13 11:54:04;;;;;;;3.75;1.77;;;31.30;66.60;;;;;;4921446;29;20469;-59
2022/08/13 11:56:30;;;;;;;5.68;1.98;;;31.40;66.60;;;;;;4921765;29;20143;-59
2022/08/13 11:58:58;;;;;;;3.05;1.70;;;31.40;66.50;;;;;;4922637;29;20060;-59
2022/08/13 12:01:25;;;;;;;3.85;1.85;;;31.40;66.00;;;;;;4889238;28;20131;-59
2022/08/13 12:03:54;;;;;;;3.50;1.92;;;31.40;67.00;;;;;;4919060;29;20546;-59
2022/08/13 12:06:20;;;;;;;8.10;1.80;;;31.40;67.40;;;;;;4890400;29;20345;-59
2022/08/13 12:08:46;;;;;;;3.47;1.85;;;31.60;68.40;;;;;;4890483;28;20063;-59
2022/08/13 12:11:11;;;;;;;3.20;1.80;;;31.60;67.30;;;;;;4911021;28;20060;-59
2022/08/13 12:13:37;;;;;;;2.08;1.58;;;31.70;66.90;;;;;;4904531;29;20052;-59
2022/08/13 12:16:04;;;;;;;4.65;1.50;;;31.70;65.90;;;;;;4906038;28;20056;-59
2022/08/13 12:18:35;;;;;;;2.38;1.70;;;31.80;66.70;;;;;;4889002;28;20475;-60
2022/08/13 12:21:02;;;;;;;5.88;1.50;;;31.80;65.50;;;;;;4904994;28;20044;-60
2022/08/13 12:23:29;;;;;;;1.75;1.50;;;31.70;64.20;;;;;;4916526;28;20070;-61
2022/08/13 12:25:55;;;;;;;2.03;1.50;;;31.60;65.20;;;;;;4973853;28;20047;-60
2022/08/13 12:28:26;;;;;;;2.95;1.45;;;31.60;65.30;;;;;;4967708;28;20078;-60
2022/08/13 12:30:58;;;;;;;1.97;1.57;;;31.60;66.00;;;;;;4964783;28;20146;-60
2022/08/13 12:33:27;;;;;;;3.05;1.70;;;31.60;65.20;;;;;;4962891;28;20302;-60
2022/08/13 12:35:54;;;;;;;2.75;1.80;;;31.60;66.10;;;;;;4973995;28;20128;-59
2022/08/13 12:38:20;;;;;;;3.88;2.33;;;31.60;68.10;;;;;;4983213;28;20054;-59
2022/08/13 12:40:47;;;;;;;2.85;1.60;;;31.60;68.00;;;;;;4983865;28;20133;-60
2022/08/13 12:43:14;;;;;;;5.43;2.67;;;31.50;68.00;;;;;;4982104;28;20050;-59
2022/08/13 12:45:43;;;;;;;2.20;2.00;;;31.60;67.60;;;;;;4966146;28;20055;-60
2022/08/13 12:48:12;;;;;;;2.53;1.80;;;31.50;66.00;;;;;;4963086;28;20080;-59
2022/08/13 12:50:41;;;;;;;5.45;2.10;;;31.60;66.50;;;;;;4962837;28;20070;-59
2022/08/13 12:53:07;;;;;;;4.65;2.00;;;31.60;67.30;;;;;;4962812;28;20375;-59
2022/08/13 12:55:35;;;;;;;3.35;1.90;;;31.60;67.80;;;;;;4963228;28;20076;-59
2022/08/13 12:58:17;;;;;;;2.40;1.88;;;31.70;67.90;;;;;;4968910;28;20050;-59
2022/08/13 13:00:46;;;;;;;6.70;2.15;;;31.80;67.20;;;;;;4957979;28;20132;-59
2022/08/13 13:03:13;;;;;;;4.93;2.03;;;31.70;67.20;;;;;;4960605;28;20061;-59
2022/08/13 13:05:47;;;;;;;3.17;1.95;;;31.70;65.10;;;;;;4962706;28;20046;-59
2022/08/13 13:08:20;;;;;;;2.80;1.98;;;31.60;63.80;;;;;;4971494;28;20086;-59
2022/08/13 13:10:48;;;;;;;2.35;1.70;;;31.50;65.40;;;;;;4961238;28;20188;-60
2022/08/13 13:13:18;;;;;;;4.15;2.13;;;31.60;67.60;;;;;;4961513;28;20557;-59
2022/08/13 13:15:44;;;;;;;5.28;2.05;;;31.70;66.60;;;;;;4993938;28;20047;-59
2022/08/13 13:18:17;;;;;;;2.92;2.00;;;31.60;66.20;;;;;;4971424;28;20059;-59
2022/08/13 13:20:45;;;;;;;3.25;2.33;;;31.60;65.70;;;;;;5000784;28;20497;-59
2022/08/13 13:23:13;;;;;;;2.22;1.80;;;31.60;66.50;;;;;;4971193;28;20046;-59
2022/08/13 13:25:43;;;;;;;6.45;2.60;;;31.50;66.50;;;;;;4970688;28;20573;-60
2022/08/13 13:28:11;;;;;;;4.47;2.17;;;31.70;67.20;;;;;;4972868;28;20772;-60